sensor_id;sensor_type;location;lat;lon;timestamp;P1;durP1;ratioP1;P2;durP2;ratioP2
10645;SDS011;5371;49.782;9.932;2023-02-15T00:00:01;61.90;;;26.43;;
10645;SDS011;5371;49.782;9.932;2023-02-15T00:02:30;57.00;;;25.57;;
10645;SDS011;5371;49.782;9.932;2023-02-15T00:04:57;55.83;;;25.47;;
10645;SDS011;5371;49.782;9.932;2023-02-15T00:07:24;56.63;;;25.60;;
10645;SDS011;5371;49.782;9.932;2023-02-15T00:09:51;56.03;;;26.73;;
10645;SDS011;5371;49.782;9.932;2023-02-15T00:12:18;55.43;;;24.73;;
10645;SDS011;5371;49.782;9.932;2023-02-15T00:14:45;54.67;;;24.77;;
10645;SDS011;5371;49.782;9.932;2023-02-15T00:17:14;57.20;;;25.23;;
10645;SDS011;5371;49.782;9.932;2023-02-15T00:19:41;58.60;;;26.23;;
10645;SDS011;5371;49.782;9.932;2023-02-15T00:22:08;58.10;;;25.40;;
10645;SDS011;5371;49.782;9.932;2023-02-15T00:24:35;53.87;;;24.73;;
10645;SDS011;5371;49.782;9.932;2023-02-15T00:27:02;53.30;;;24.53;;
10645;SDS011;5371;49.782;9.932;2023-02-15T00:29:29;54.50;;;24.70;;
10645;SDS011;5371;49.782;9.932;2023-02-15T00:31:56;54.17;;;24.93;;
10645;SDS011;5371;49.782;9.932;2023-02-15T00:34:26;53.07;;;24.30;;
10645;SDS011;5371;49.782;9.932;2023-02-15T00:36:55;55.17;;;25.57;;
10645;SDS011;5371;49.782;9.932;2023-02-15T00:39:22;50.17;;;24.63;;
10645;SDS011;5371;49.782;9.932;2023-02-15T00:41:50;55.87;;;25.03;;
10645;SDS011;5371;49.782;9.932;2023-02-15T00:44:17;51.33;;;23.87;;
10645;SDS011;5371;49.782;9.932;2023-02-15T00:46:44;48.43;;;23.77;;
10645;SDS011;5371;49.782;9.932;2023-02-15T00:49:11;54.87;;;25.17;;
10645;SDS011;5371;49.782;9.932;2023-02-15T00:51:40;49.33;;;24.20;;
10645;SDS011;5371;49.782;9.932;2023-02-15T00:54:07;49.67;;;24.57;;
10645;SDS011;5371;49.782;9.932;2023-02-15T00:56:34;46.37;;;23.13;;
10645;SDS011;5371;49.782;9.932;2023-02-15T00:59:01;46.97;;;22.27;;
10645;SDS011;5371;49.782;9.932;2023-02-15T01:01:28;45.23;;;22.20;;
10645;SDS011;5371;49.782;9.932;2023-02-15T01:03:55;45.37;;;22.07;;
10645;SDS011;5371;49.782;9.932;2023-02-15T01:06:22;49.67;;;22.33;;
10645;SDS011;5371;49.782;9.932;2023-02-15T01:08:50;45.23;;;21.73;;
10645;SDS011;5371;49.782;9.932;2023-02-15T01:11:18;42.50;;;20.93;;
10645;SDS011;5371;49.782;9.932;2023-02-15T01:13:50;46.00;;;20.93;;
10645;SDS011;5371;49.782;9.932;2023-02-15T01:16:18;45.17;;;21.97;;
10645;SDS011;5371;49.782;9.932;2023-02-15T01:18:45;46.27;;;21.67;;
10645;SDS011;5371;49.782;9.932;2023-02-15T01:21:15;44.13;;;22.33;;
10645;SDS011;5371;49.782;9.932;2023-02-15T01:23:43;45.93;;;21.80;;
10645;SDS011;5371;49.782;9.932;2023-02-15T01:26:13;43.63;;;22.03;;
10645;SDS011;5371;49.782;9.932;2023-02-15T01:28:42;45.27;;;21.80;;
10645;SDS011;5371;49.782;9.932;2023-02-15T01:31:10;41.97;;;21.57;;
10645;SDS011;5371;49.782;9.932;2023-02-15T01:33:38;42.27;;;20.77;;
10645;SDS011;5371;49.782;9.932;2023-02-15T01:36:05;43.50;;;20.13;;
10645;SDS011;5371;49.782;9.932;2023-02-15T01:38:32;43.97;;;20.97;;
10645;SDS011;5371;49.782;9.932;2023-02-15T01:41:01;39.20;;;19.03;;
10645;SDS011;5371;49.782;9.932;2023-02-15T01:43:44;42.10;;;20.30;;
10645;SDS011;5371;49.782;9.932;2023-02-15T01:46:14;42.67;;;20.90;;
10645;SDS011;5371;49.782;9.932;2023-02-15T01:48:43;44.73;;;22.03;;
10645;SDS011;5371;49.782;9.932;2023-02-15T01:51:13;43.90;;;21.57;;
10645;SDS011;5371;49.782;9.932;2023-02-15T01:53:43;43.93;;;21.40;;
10645;SDS011;5371;49.782;9.932;2023-02-15T01:56:16;41.23;;;20.87;;
10645;SDS011;5371;49.782;9.932;2023-02-15T01:58:49;41.87;;;20.30;;
10645;SDS011;5371;49.782;9.932;2023-02-15T02:01:20;40.20;;;20.17;;
10645;SDS011;5371;49.782;9.932;2023-02-15T02:03:49;40.07;;;20.40;;
10645;SDS011;5371;49.782;9.932;2023-02-15T02:06:24;40.73;;;20.17;;
10645;SDS011;5371;49.782;9.932;2023-02-15T02:08:52;43.13;;;21.77;;
10645;SDS011;5371;49.782;9.932;2023-02-15T02:11:20;35.50;;;19.70;;
10645;SDS011;5371;49.782;9.932;2023-02-15T02:13:47;38.83;;;19.20;;
10645;SDS011;5371;49.782;9.932;2023-02-15T02:16:19;41.83;;;21.07;;
10645;SDS011;5371;49.782;9.932;2023-02-15T02:18:58;41.20;;;20.00;;
10645;SDS011;5371;49.782;9.932;2023-02-15T02:25:05;37.50;;;17.73;;
10645;SDS011;5371;49.782;9.932;2023-02-15T02:27:54;35.30;;;19.40;;
10645;SDS011;5371;49.782;9.932;2023-02-15T02:31:02;37.33;;;19.00;;
10645;SDS011;5371;49.782;9.932;2023-02-15T02:33:52;32.83;;;18.00;;
10645;SDS011;5371;49.782;9.932;2023-02-15T02:36:28;31.10;;;17.03;;
10645;SDS011;5371;49.782;9.932;2023-02-15T02:39:06;35.93;;;19.47;;
10645;SDS011;5371;49.782;9.932;2023-02-15T02:41:42;34.57;;;18.80;;
10645;SDS011;5371;49.782;9.932;2023-02-15T02:44:16;38.63;;;19.10;;
10645;SDS011;5371;49.782;9.932;2023-02-15T02:46:51;34.50;;;18.13;;
10645;SDS011;5371;49.782;9.932;2023-02-15T02:49:30;36.60;;;19.70;;
10645;SDS011;5371;49.782;9.932;2023-02-15T02:51:59;37.13;;;18.80;;
10645;SDS011;5371;49.782;9.932;2023-02-15T02:54:27;36.37;;;19.40;;
10645;SDS011;5371;49.782;9.932;2023-02-15T02:56:55;36.23;;;18.60;;
10645;SDS011;5371;49.782;9.932;2023-02-15T02:59:26;35.93;;;19.03;;
10645;SDS011;5371;49.782;9.932;2023-02-15T03:01:57;35.83;;;18.13;;
10645;SDS011;5371;49.782;9.932;2023-02-15T03:04:32;32.87;;;17.30;;
10645;SDS011;5371;49.782;9.932;2023-02-15T03:07:04;31.13;;;17.50;;
10645;SDS011;5371;49.782;9.932;2023-02-15T03:09:35;33.90;;;18.53;;
10645;SDS011;5371;49.782;9.932;2023-02-15T03:12:08;33.77;;;18.10;;
10645;SDS011;5371;49.782;9.932;2023-02-15T03:14:44;37.43;;;18.67;;
10645;SDS011;5371;49.782;9.932;2023-02-15T03:17:15;32.47;;;17.37;;
10645;SDS011;5371;49.782;9.932;2023-02-15T03:19:46;35.43;;;18.50;;
10645;SDS011;5371;49.782;9.932;2023-02-15T03:22:18;33.47;;;17.90;;
10645;SDS011;5371;49.782;9.932;2023-02-15T03:24:53;33.27;;;17.53;;
10645;SDS011;5371;49.782;9.932;2023-02-15T03:27:24;35.10;;;18.33;;
10645;SDS011;5371;49.782;9.932;2023-02-15T03:29:55;34.83;;;18.20;;
10645;SDS011;5371;49.782;9.932;2023-02-15T03:32:24;33.93;;;18.20;;
10645;SDS011;5371;49.782;9.932;2023-02-15T03:34:55;33.87;;;18.37;;
10645;SDS011;5371;49.782;9.932;2023-02-15T03:37:24;32.53;;;17.63;;
10645;SDS011;5371;49.782;9.932;2023-02-15T03:39:55;35.03;;;18.73;;
10645;SDS011;5371;49.782;9.932;2023-02-15T03:42:46;32.20;;;17.37;;
10645;SDS011;5371;49.782;9.932;2023-02-15T03:45:20;33.37;;;17.43;;
10645;SDS011;5371;49.782;9.932;2023-02-15T03:47:51;30.77;;;17.87;;
10645;SDS011;5371;49.782;9.932;2023-02-15T03:50:22;38.70;;;19.00;;
10645;SDS011;5371;49.782;9.932;2023-02-15T03:53:11;34.00;;;18.13;;
10645;SDS011;5371;49.782;9.932;2023-02-15T03:55:41;33.50;;;17.93;;
10645;SDS011;5371;49.782;9.932;2023-02-15T03:58:08;33.53;;;17.97;;
10645;SDS011;5371;49.782;9.932;2023-02-15T04:00:54;37.03;;;17.93;;
10645;SDS011;5371;49.782;9.932;2023-02-15T04:03:42;32.50;;;17.67;;
10645;SDS011;5371;49.782;9.932;2023-02-15T04:06:13;34.83;;;17.70;;
10645;SDS011;5371;49.782;9.932;2023-02-15T04:08:40;33.23;;;17.90;;
10645;SDS011;5371;49.782;9.932;2023-02-15T04:11:25;36.90;;;18.93;;
10645;SDS011;5371;49.782;9.932;2023-02-15T04:13:52;33.67;;;18.30;;
10645;SDS011;5371;49.782;9.932;2023-02-15T04:16:21;33.03;;;17.57;;
10645;SDS011;5371;49.782;9.932;2023-02-15T04:18:47;34.67;;;18.07;;
10645;SDS011;5371;49.782;9.932;2023-02-15T04:21:33;34.47;;;17.37;;
10645;SDS011;5371;49.782;9.932;2023-02-15T04:24:18;34.97;;;18.43;;
10645;SDS011;5371;49.782;9.932;2023-02-15T04:27:02;34.60;;;17.70;;
10645;SDS011;5371;49.782;9.932;2023-02-15T04:29:30;32.43;;;18.33;;
10645;SDS011;5371;49.782;9.932;2023-02-15T04:31:59;32.43;;;17.00;;
10645;SDS011;5371;49.782;9.932;2023-02-15T04:34:27;37.13;;;17.77;;
10645;SDS011;5371;49.782;9.932;2023-02-15T04:36:55;32.43;;;16.57;;
10645;SDS011;5371;49.782;9.932;2023-02-15T04:39:22;36.73;;;18.87;;
10645;SDS011;5371;49.782;9.932;2023-02-15T04:41:49;34.57;;;17.60;;
10645;SDS011;5371;49.782;9.932;2023-02-15T04:44:15;32.50;;;16.40;;
10645;SDS011;5371;49.782;9.932;2023-02-15T04:46:42;29.83;;;15.90;;
10645;SDS011;5371;49.782;9.932;2023-02-15T04:49:09;35.43;;;18.10;;
10645;SDS011;5371;49.782;9.932;2023-02-15T04:51:36;34.47;;;17.67;;
10645;SDS011;5371;49.782;9.932;2023-02-15T04:54:05;31.07;;;17.00;;
10645;SDS011;5371;49.782;9.932;2023-02-15T04:56:32;34.80;;;17.70;;
10645;SDS011;5371;49.782;9.932;2023-02-15T04:59:00;35.90;;;18.20;;
10645;SDS011;5371;49.782;9.932;2023-02-15T05:01:27;36.60;;;17.93;;
10645;SDS011;5371;49.782;9.932;2023-02-15T05:03:54;33.97;;;17.00;;
10645;SDS011;5371;49.782;9.932;2023-02-15T05:06:21;34.80;;;18.03;;
10645;SDS011;5371;49.782;9.932;2023-02-15T05:08:48;31.90;;;16.77;;
10645;SDS011;5371;49.782;9.932;2023-02-15T05:11:17;31.60;;;17.00;;
10645;SDS011;5371;49.782;9.932;2023-02-15T05:13:44;36.17;;;17.60;;
10645;SDS011;5371;49.782;9.932;2023-02-15T05:16:11;37.00;;;16.87;;
10645;SDS011;5371;49.782;9.932;2023-02-15T05:18:37;34.67;;;17.30;;
10645;SDS011;5371;49.782;9.932;2023-02-15T05:21:04;34.97;;;17.50;;
10645;SDS011;5371;49.782;9.932;2023-02-15T05:23:31;31.27;;;16.07;;
10645;SDS011;5371;49.782;9.932;2023-02-15T05:25:58;30.37;;;16.23;;
10645;SDS011;5371;49.782;9.932;2023-02-15T05:28:44;34.27;;;16.83;;
10645;SDS011;5371;49.782;9.932;2023-02-15T05:31:11;31.03;;;16.43;;
10645;SDS011;5371;49.782;9.932;2023-02-15T05:33:40;32.93;;;16.83;;
10645;SDS011;5371;49.782;9.932;2023-02-15T05:36:08;34.27;;;16.00;;
10645;SDS011;5371;49.782;9.932;2023-02-15T05:38:35;31.10;;;16.70;;
10645;SDS011;5371;49.782;9.932;2023-02-15T05:41:03;27.83;;;15.47;;
10645;SDS011;5371;49.782;9.932;2023-02-15T05:43:30;30.53;;;16.37;;
10645;SDS011;5371;49.782;9.932;2023-02-15T05:45:59;31.87;;;16.27;;
10645;SDS011;5371;49.782;9.932;2023-02-15T05:48:26;30.77;;;15.47;;
10645;SDS011;5371;49.782;9.932;2023-02-15T05:50:57;30.77;;;15.10;;
10645;SDS011;5371;49.782;9.932;2023-02-15T05:53:25;29.57;;;16.03;;
10645;SDS011;5371;49.782;9.932;2023-02-15T05:55:52;30.97;;;16.17;;
10645;SDS011;5371;49.782;9.932;2023-02-15T05:58:24;33.57;;;16.77;;
10645;SDS011;5371;49.782;9.932;2023-02-15T06:00:51;32.10;;;16.87;;
10645;SDS011;5371;49.782;9.932;2023-02-15T06:03:19;35.97;;;17.50;;
10645;SDS011;5371;49.782;9.932;2023-02-15T06:05:47;33.57;;;16.83;;
10645;SDS011;5371;49.782;9.932;2023-02-15T06:08:14;35.47;;;17.97;;
10645;SDS011;5371;49.782;9.932;2023-02-15T06:10:41;34.47;;;16.67;;
10645;SDS011;5371;49.782;9.932;2023-02-15T06:13:08;36.67;;;17.37;;
10645;SDS011;5371;49.782;9.932;2023-02-15T06:15:36;36.07;;;17.13;;
10645;SDS011;5371;49.782;9.932;2023-02-15T06:18:03;35.97;;;17.67;;
10645;SDS011;5371;49.782;9.932;2023-02-15T06:20:31;35.53;;;18.47;;
10645;SDS011;5371;49.782;9.932;2023-02-15T06:22:58;36.07;;;18.13;;
10645;SDS011;5371;49.782;9.932;2023-02-15T06:25:25;34.23;;;18.50;;
10645;SDS011;5371;49.782;9.932;2023-02-15T06:27:52;34.67;;;18.20;;
10645;SDS011;5371;49.782;9.932;2023-02-15T06:30:19;36.17;;;18.20;;
10645;SDS011;5371;49.782;9.932;2023-02-15T06:32:46;34.47;;;17.03;;
10645;SDS011;5371;49.782;9.932;2023-02-15T06:35:13;33.17;;;17.80;;
10645;SDS011;5371;49.782;9.932;2023-02-15T06:37:42;34.50;;;17.83;;
10645;SDS011;5371;49.782;9.932;2023-02-15T06:40:11;33.60;;;17.80;;
10645;SDS011;5371;49.782;9.932;2023-02-15T06:42:38;31.37;;;16.20;;
10645;SDS011;5371;49.782;9.932;2023-02-15T06:45:05;35.30;;;17.50;;
10645;SDS011;5371;49.782;9.932;2023-02-15T06:47:33;33.27;;;17.10;;
10645;SDS011;5371;49.782;9.932;2023-02-15T06:50:00;33.63;;;17.17;;
10645;SDS011;5371;49.782;9.932;2023-02-15T06:52:27;31.17;;;15.40;;
10645;SDS011;5371;49.782;9.932;2023-02-15T06:54:56;32.27;;;16.17;;
10645;SDS011;5371;49.782;9.932;2023-02-15T06:57:23;30.93;;;16.30;;
10645;SDS011;5371;49.782;9.932;2023-02-15T06:59:50;31.50;;;16.03;;
10645;SDS011;5371;49.782;9.932;2023-02-15T07:02:18;33.47;;;16.07;;
10645;SDS011;5371;49.782;9.932;2023-02-15T07:04:45;31.17;;;15.30;;
10645;SDS011;5371;49.782;9.932;2023-02-15T07:07:11;32.33;;;14.90;;
10645;SDS011;5371;49.782;9.932;2023-02-15T07:09:39;28.57;;;14.90;;
10645;SDS011;5371;49.782;9.932;2023-02-15T07:12:07;32.50;;;15.73;;
10645;SDS011;5371;49.782;9.932;2023-02-15T07:14:53;30.93;;;16.03;;
10645;SDS011;5371;49.782;9.932;2023-02-15T07:17:20;30.17;;;15.60;;
10645;SDS011;5371;49.782;9.932;2023-02-15T07:19:47;28.83;;;15.07;;
10645;SDS011;5371;49.782;9.932;2023-02-15T07:22:14;29.40;;;14.70;;
10645;SDS011;5371;49.782;9.932;2023-02-15T07:24:42;29.57;;;15.00;;
10645;SDS011;5371;49.782;9.932;2023-02-15T07:27:11;29.27;;;14.57;;
10645;SDS011;5371;49.782;9.932;2023-02-15T07:29:38;28.17;;;14.90;;
10645;SDS011;5371;49.782;9.932;2023-02-15T07:32:05;26.47;;;14.33;;
10645;SDS011;5371;49.782;9.932;2023-02-15T07:34:31;28.60;;;15.00;;
10645;SDS011;5371;49.782;9.932;2023-02-15T07:36:58;27.57;;;13.90;;
10645;SDS011;5371;49.782;9.932;2023-02-15T07:39:25;30.30;;;15.27;;
10645;SDS011;5371;49.782;9.932;2023-02-15T07:41:52;27.77;;;14.33;;
10645;SDS011;5371;49.782;9.932;2023-02-15T07:44:21;29.30;;;15.27;;
10645;SDS011;5371;49.782;9.932;2023-02-15T07:46:48;31.03;;;16.27;;
10645;SDS011;5371;49.782;9.932;2023-02-15T07:49:15;32.30;;;15.90;;
10645;SDS011;5371;49.782;9.932;2023-02-15T07:51:42;32.87;;;16.27;;
10645;SDS011;5371;49.782;9.932;2023-02-15T07:54:09;27.53;;;14.07;;
10645;SDS011;5371;49.782;9.932;2023-02-15T07:56:36;31.83;;;15.73;;
10645;SDS011;5371;49.782;9.932;2023-02-15T07:59:03;31.80;;;16.10;;
10645;SDS011;5371;49.782;9.932;2023-02-15T08:01:32;34.13;;;17.17;;
10645;SDS011;5371;49.782;9.932;2023-02-15T08:04:00;35.00;;;17.07;;
10645;SDS011;5371;49.782;9.932;2023-02-15T08:06:28;34.00;;;17.30;;
10645;SDS011;5371;49.782;9.932;2023-02-15T08:08:57;34.07;;;14.83;;
10645;SDS011;5371;49.782;9.932;2023-02-15T08:11:25;31.50;;;15.53;;
10645;SDS011;5371;49.782;9.932;2023-02-15T08:13:58;32.23;;;16.00;;
10645;SDS011;5371;49.782;9.932;2023-02-15T08:16:29;29.97;;;15.37;;
10645;SDS011;5371;49.782;9.932;2023-02-15T08:19:00;29.90;;;14.90;;
10645;SDS011;5371;49.782;9.932;2023-02-15T08:21:28;35.13;;;16.97;;
10645;SDS011;5371;49.782;9.932;2023-02-15T08:23:56;31.13;;;16.57;;
10645;SDS011;5371;49.782;9.932;2023-02-15T08:26:24;33.30;;;17.47;;
10645;SDS011;5371;49.782;9.932;2023-02-15T08:28:52;30.00;;;15.30;;
10645;SDS011;5371;49.782;9.932;2023-02-15T08:31:19;30.57;;;15.67;;
10645;SDS011;5371;49.782;9.932;2023-02-15T08:33:49;31.10;;;15.93;;
10645;SDS011;5371;49.782;9.932;2023-02-15T08:36:17;34.33;;;17.10;;
10645;SDS011;5371;49.782;9.932;2023-02-15T08:38:45;34.67;;;17.70;;
10645;SDS011;5371;49.782;9.932;2023-02-15T08:41:13;35.07;;;17.20;;
10645;SDS011;5371;49.782;9.932;2023-02-15T08:43:41;32.53;;;15.90;;
10645;SDS011;5371;49.782;9.932;2023-02-15T08:46:11;39.37;;;20.23;;
10645;SDS011;5371;49.782;9.932;2023-02-15T08:48:39;34.80;;;17.27;;
10645;SDS011;5371;49.782;9.932;2023-02-15T08:51:09;37.13;;;16.73;;
10645;SDS011;5371;49.782;9.932;2023-02-15T08:53:38;31.03;;;16.13;;
10645;SDS011;5371;49.782;9.932;2023-02-15T08:56:06;30.67;;;15.57;;
10645;SDS011;5371;49.782;9.932;2023-02-15T08:58:34;31.30;;;16.33;;
10645;SDS011;5371;49.782;9.932;2023-02-15T09:01:07;32.43;;;16.67;;
10645;SDS011;5371;49.782;9.932;2023-02-15T09:03:35;30.77;;;16.10;;
10645;SDS011;5371;49.782;9.932;2023-02-15T09:06:02;34.93;;;18.30;;
10645;SDS011;5371;49.782;9.932;2023-02-15T09:08:31;36.67;;;18.50;;
10645;SDS011;5371;49.782;9.932;2023-02-15T09:11:08;36.90;;;17.87;;
10645;SDS011;5371;49.782;9.932;2023-02-15T09:13:37;37.03;;;17.93;;
10645;SDS011;5371;49.782;9.932;2023-02-15T09:16:06;36.13;;;17.60;;
10645;SDS011;5371;49.782;9.932;2023-02-15T09:18:35;39.50;;;18.13;;
10645;SDS011;5371;49.782;9.932;2023-02-15T09:21:04;32.97;;;16.73;;
10645;SDS011;5371;49.782;9.932;2023-02-15T09:23:34;38.23;;;19.10;;
10645;SDS011;5371;49.782;9.932;2023-02-15T09:26:02;37.67;;;18.17;;
10645;SDS011;5371;49.782;9.932;2023-02-15T09:28:30;36.57;;;18.37;;
10645;SDS011;5371;49.782;9.932;2023-02-15T09:31:04;36.80;;;18.30;;
10645;SDS011;5371;49.782;9.932;2023-02-15T09:33:35;34.47;;;17.33;;
10645;SDS011;5371;49.782;9.932;2023-02-15T09:36:03;35.30;;;18.20;;
10645;SDS011;5371;49.782;9.932;2023-02-15T09:38:30;39.17;;;17.53;;
10645;SDS011;5371;49.782;9.932;2023-02-15T09:41:02;35.87;;;18.07;;
10645;SDS011;5371;49.782;9.932;2023-02-15T09:43:35;37.40;;;18.37;;
10645;SDS011;5371;49.782;9.932;2023-02-15T09:49:00;40.07;;;19.10;;
10645;SDS011;5371;49.782;9.932;2023-02-15T09:51:45;36.80;;;18.27;;
10645;SDS011;5371;49.782;9.932;2023-02-15T09:54:32;42.13;;;18.27;;
10645;SDS011;5371;49.782;9.932;2023-02-15T09:57:16;35.70;;;17.73;;
10645;SDS011;5371;49.782;9.932;2023-02-15T09:59:51;40.63;;;19.43;;
10645;SDS011;5371;49.782;9.932;2023-02-15T10:02:31;40.30;;;19.50;;
10645;SDS011;5371;49.782;9.932;2023-02-15T10:05:13;37.07;;;17.93;;
10645;SDS011;5371;49.782;9.932;2023-02-15T10:07:55;35.83;;;18.30;;
10645;SDS011;5371;49.782;9.932;2023-02-15T10:10:38;33.30;;;17.47;;
10645;SDS011;5371;49.782;9.932;2023-02-15T10:13:16;35.60;;;17.40;;
10645;SDS011;5371;49.782;9.932;2023-02-15T10:15:57;33.60;;;17.60;;
10645;SDS011;5371;49.782;9.932;2023-02-15T10:18:37;31.00;;;17.10;;
10645;SDS011;5371;49.782;9.932;2023-02-15T10:21:15;35.63;;;18.10;;
10645;SDS011;5371;49.782;9.932;2023-02-15T10:24:01;33.23;;;16.80;;
10645;SDS011;5371;49.782;9.932;2023-02-15T10:26:38;36.07;;;18.13;;
10645;SDS011;5371;49.782;9.932;2023-02-15T10:29:14;34.27;;;18.33;;
10645;SDS011;5371;49.782;9.932;2023-02-15T10:31:49;34.10;;;17.43;;
10645;SDS011;5371;49.782;9.932;2023-02-15T10:34:18;37.33;;;18.10;;
10645;SDS011;5371;49.782;9.932;2023-02-15T10:36:53;35.40;;;16.57;;
10645;SDS011;5371;49.782;9.932;2023-02-15T10:39:48;33.93;;;16.63;;
10645;SDS011;5371;49.782;9.932;2023-02-15T10:42:25;36.33;;;17.57;;
10645;SDS011;5371;49.782;9.932;2023-02-15T10:45:06;35.07;;;17.23;;
10645;SDS011;5371;49.782;9.932;2023-02-15T10:47:44;36.63;;;17.77;;
10645;SDS011;5371;49.782;9.932;2023-02-15T10:53:18;39.70;;;19.43;;
10645;SDS011;5371;49.782;9.932;2023-02-15T10:56:07;32.03;;;15.20;;
10645;SDS011;5371;49.782;9.932;2023-02-15T10:58:54;35.80;;;18.50;;
10645;SDS011;5371;49.782;9.932;2023-02-15T11:01:33;38.13;;;18.87;;
10645;SDS011;5371;49.782;9.932;2023-02-15T11:04:08;35.27;;;18.23;;
10645;SDS011;5371;49.782;9.932;2023-02-15T11:06:52;38.87;;;19.13;;
10645;SDS011;5371;49.782;9.932;2023-02-15T11:09:21;38.43;;;18.90;;
10645;SDS011;5371;49.782;9.932;2023-02-15T11:11:51;34.73;;;18.20;;
10645;SDS011;5371;49.782;9.932;2023-02-15T11:14:22;34.63;;;17.63;;
10645;SDS011;5371;49.782;9.932;2023-02-15T11:17:02;34.30;;;17.90;;
10645;SDS011;5371;49.782;9.932;2023-02-15T11:19:33;35.67;;;18.17;;
10645;SDS011;5371;49.782;9.932;2023-02-15T11:22:05;35.60;;;18.37;;
10645;SDS011;5371;49.782;9.932;2023-02-15T11:24:35;36.63;;;18.10;;
10645;SDS011;5371;49.782;9.932;2023-02-15T11:27:14;33.47;;;18.60;;
10645;SDS011;5371;49.782;9.932;2023-02-15T11:29:47;36.50;;;18.20;;
10645;SDS011;5371;49.782;9.932;2023-02-15T11:32:23;33.53;;;16.10;;
10645;SDS011;5371;49.782;9.932;2023-02-15T11:34:54;33.73;;;18.40;;
10645;SDS011;5371;49.782;9.932;2023-02-15T11:37:27;35.97;;;18.47;;
10645;SDS011;5371;49.782;9.932;2023-02-15T11:40:00;33.53;;;18.57;;
10645;SDS011;5371;49.782;9.932;2023-02-15T11:42:29;34.80;;;18.43;;
10645;SDS011;5371;49.782;9.932;2023-02-15T11:44:59;35.07;;;18.50;;
10645;SDS011;5371;49.782;9.932;2023-02-15T11:47:36;38.70;;;19.40;;
10645;SDS011;5371;49.782;9.932;2023-02-15T11:50:03;36.37;;;18.63;;
10645;SDS011;5371;49.782;9.932;2023-02-15T11:52:31;37.57;;;19.77;;
10645;SDS011;5371;49.782;9.932;2023-02-15T11:54:59;34.03;;;18.83;;
10645;SDS011;5371;49.782;9.932;2023-02-15T11:57:28;36.50;;;19.57;;
10645;SDS011;5371;49.782;9.932;2023-02-15T12:00:01;35.17;;;18.07;;
10645;SDS011;5371;49.782;9.932;2023-02-15T12:02:39;33.63;;;18.97;;
10645;SDS011;5371;49.782;9.932;2023-02-15T12:05:11;35.90;;;18.60;;
10645;SDS011;5371;49.782;9.932;2023-02-15T12:07:43;34.77;;;17.83;;
10645;SDS011;5371;49.782;9.932;2023-02-15T12:10:17;34.07;;;18.43;;
10645;SDS011;5371;49.782;9.932;2023-02-15T12:12:46;33.63;;;17.40;;
10645;SDS011;5371;49.782;9.932;2023-02-15T12:15:13;34.70;;;19.80;;
10645;SDS011;5371;49.782;9.932;2023-02-15T12:17:51;33.03;;;18.57;;
10645;SDS011;5371;49.782;9.932;2023-02-15T12:20:21;30.23;;;17.33;;
10645;SDS011;5371;49.782;9.932;2023-02-15T12:22:58;33.47;;;18.90;;
10645;SDS011;5371;49.782;9.932;2023-02-15T12:25:29;33.77;;;17.47;;
10645;SDS011;5371;49.782;9.932;2023-02-15T12:28:02;33.30;;;17.50;;
10645;SDS011;5371;49.782;9.932;2023-02-15T12:30:31;35.23;;;18.20;;
10645;SDS011;5371;49.782;9.932;2023-02-15T12:33:05;32.63;;;18.40;;
10645;SDS011;5371;49.782;9.932;2023-02-15T12:35:42;31.40;;;17.87;;
10645;SDS011;5371;49.782;9.932;2023-02-15T12:38:20;36.17;;;19.00;;
10645;SDS011;5371;49.782;9.932;2023-02-15T12:40:56;33.97;;;18.40;;
10645;SDS011;5371;49.782;9.932;2023-02-15T12:43:25;29.33;;;17.47;;
10645;SDS011;5371;49.782;9.932;2023-02-15T12:45:53;33.10;;;18.27;;
10645;SDS011;5371;49.782;9.932;2023-02-15T12:48:42;31.47;;;18.47;;
10645;SDS011;5371;49.782;9.932;2023-02-15T12:51:13;30.13;;;17.90;;
10645;SDS011;5371;49.782;9.932;2023-02-15T12:53:41;30.30;;;16.80;;
10645;SDS011;5371;49.782;9.932;2023-02-15T12:56:09;32.23;;;17.23;;
10645;SDS011;5371;49.782;9.932;2023-02-15T12:58:37;32.67;;;18.23;;
10645;SDS011;5371;49.782;9.932;2023-02-15T13:01:10;31.23;;;18.40;;
10645;SDS011;5371;49.782;9.932;2023-02-15T13:03:54;31.40;;;18.37;;
10645;SDS011;5371;49.782;9.932;2023-02-15T13:06:25;31.87;;;17.77;;
10645;SDS011;5371;49.782;9.932;2023-02-15T13:08:54;36.70;;;19.13;;
10645;SDS011;5371;49.782;9.932;2023-02-15T13:11:25;31.20;;;17.87;;
10645;SDS011;5371;49.782;9.932;2023-02-15T13:13:55;33.37;;;19.00;;
10645;SDS011;5371;49.782;9.932;2023-02-15T13:16:26;33.40;;;18.23;;
10645;SDS011;5371;49.782;9.932;2023-02-15T13:18:58;31.87;;;18.37;;
10645;SDS011;5371;49.782;9.932;2023-02-15T13:21:31;32.30;;;18.50;;
10645;SDS011;5371;49.782;9.932;2023-02-15T13:24:04;38.17;;;19.77;;
10645;SDS011;5371;49.782;9.932;2023-02-15T13:26:34;35.43;;;19.87;;
10645;SDS011;5371;49.782;9.932;2023-02-15T13:29:05;34.83;;;19.20;;
10645;SDS011;5371;49.782;9.932;2023-02-15T13:31:35;35.23;;;18.07;;
10645;SDS011;5371;49.782;9.932;2023-02-15T13:34:07;30.90;;;17.93;;
10645;SDS011;5371;49.782;9.932;2023-02-15T13:36:38;34.30;;;18.53;;
10645;SDS011;5371;49.782;9.932;2023-02-15T13:39:16;33.73;;;18.90;;
10645;SDS011;5371;49.782;9.932;2023-02-15T13:41:54;33.63;;;18.57;;
10645;SDS011;5371;49.782;9.932;2023-02-15T13:47:21;37.77;;;19.93;;
10645;SDS011;5371;49.782;9.932;2023-02-15T13:52:46;38.33;;;20.87;;
10645;SDS011;5371;49.782;9.932;2023-02-15T13:55:31;35.53;;;19.90;;
10645;SDS011;5371;49.782;9.932;2023-02-15T14:01:21;34.10;;;19.13;;
10645;SDS011;5371;49.782;9.932;2023-02-15T14:04:07;37.30;;;19.77;;
10645;SDS011;5371;49.782;9.932;2023-02-15T14:09:43;35.17;;;19.93;;
10645;SDS011;5371;49.782;9.932;2023-02-15T14:12:26;33.20;;;18.17;;
10645;SDS011;5371;49.782;9.932;2023-02-15T14:17:54;37.40;;;21.30;;
10645;SDS011;5371;49.782;9.932;2023-02-15T14:20:36;32.43;;;18.43;;
10645;SDS011;5371;49.782;9.932;2023-02-15T14:23:15;32.90;;;18.60;;
10645;SDS011;5371;49.782;9.932;2023-02-15T14:25:55;36.30;;;19.33;;
10645;SDS011;5371;49.782;9.932;2023-02-15T14:28:28;35.90;;;19.77;;
10645;SDS011;5371;49.782;9.932;2023-02-15T14:31:00;35.93;;;18.80;;
10645;SDS011;5371;49.782;9.932;2023-02-15T14:33:32;33.30;;;18.90;;
10645;SDS011;5371;49.782;9.932;2023-02-15T14:36:04;37.97;;;20.40;;
10645;SDS011;5371;49.782;9.932;2023-02-15T14:38:39;34.87;;;19.17;;
10645;SDS011;5371;49.782;9.932;2023-02-15T14:41:16;33.97;;;19.27;;
10645;SDS011;5371;49.782;9.932;2023-02-15T14:43:48;33.43;;;19.07;;
10645;SDS011;5371;49.782;9.932;2023-02-15T14:46:25;32.80;;;18.97;;
10645;SDS011;5371;49.782;9.932;2023-02-15T14:48:57;32.67;;;18.10;;
10645;SDS011;5371;49.782;9.932;2023-02-15T14:57:31;34.10;;;19.97;;
10645;SDS011;5371;49.782;9.932;2023-02-15T15:00:01;35.23;;;18.67;;
10645;SDS011;5371;49.782;9.932;2023-02-15T15:02:48;33.20;;;19.17;;
10645;SDS011;5371;49.782;9.932;2023-02-15T15:05:18;35.27;;;19.53;;
10645;SDS011;5371;49.782;9.932;2023-02-15T15:07:51;34.30;;;19.80;;
10645;SDS011;5371;49.782;9.932;2023-02-15T15:10:35;32.40;;;18.27;;
10645;SDS011;5371;49.782;9.932;2023-02-15T15:16:30;34.67;;;19.50;;
10645;SDS011;5371;49.782;9.932;2023-02-15T15:22:29;31.07;;;18.27;;
10645;SDS011;5371;49.782;9.932;2023-02-15T15:24:58;33.00;;;18.83;;
10645;SDS011;5371;49.782;9.932;2023-02-15T15:27:38;34.73;;;19.57;;
10645;SDS011;5371;49.782;9.932;2023-02-15T15:33:13;34.53;;;19.70;;
10645;SDS011;5371;49.782;9.932;2023-02-15T15:36:31;36.20;;;19.57;;
10645;SDS011;5371;49.782;9.932;2023-02-15T15:42:30;34.60;;;18.60;;